createdAt,value
2023-01-08T00:01:05.991Z,100272.78
2023-01-08T00:03:34.045Z,100253.19
2023-01-08T00:06:04.243Z,100259.50
2023-01-08T00:08:32.903Z,100254.13
2023-01-08T00:11:01.321Z,100254.97
2023-01-08T00:13:29.387Z,100254.06
2023-01-08T00:15:57.151Z,100244.22
2023-01-08T00:18:27.161Z,100246.81
2023-01-08T00:20:54.980Z,100247.72
2023-01-08T00:23:24.337Z,100249.50
2023-01-08T00:25:52.060Z,100237.94
2023-01-08T00:28:20.941Z,100241.44
2023-01-08T00:30:49.484Z,100239.63
2023-01-08T00:33:18.152Z,100239.50
2023-01-08T00:35:46.105Z,100242.16
2023-01-08T00:38:14.070Z,100247.56
2023-01-08T00:40:43.232Z,100259.06
2023-01-08T00:43:11.055Z,100251.06
2023-01-08T00:45:38.794Z,100250.13
2023-01-08T00:48:07.359Z,100243.91
2023-01-08T00:50:35.102Z,100235.84
2023-01-08T00:53:03.509Z,100244.81
2023-01-08T00:55:31.533Z,100236.75
2023-01-08T00:58:00.818Z,100228.81
2023-01-08T01:00:28.676Z,100233.22
2023-01-08T01:02:56.558Z,100207.31
2023-01-08T01:05:24.728Z,100204.75
2023-01-08T01:07:52.586Z,100211.81
2023-01-08T01:10:20.417Z,100208.25
2023-01-08T01:12:48.254Z,100217.22
2023-01-08T01:15:20.820Z,100212.81
2023-01-08T01:17:48.624Z,100205.59
2023-01-08T01:20:17.664Z,100219.78
2023-01-08T01:22:45.479Z,100220.69
2023-01-08T01:25:13.435Z,100218.88
2023-01-08T01:27:41.243Z,100209.97
2023-01-08T01:30:11.082Z,100198.34
2023-01-08T01:32:40.403Z,100209.06
2023-01-08T01:35:09.030Z,100225.16
2023-01-08T01:37:36.888Z,100212.66
2023-01-08T01:40:05.307Z,100214.50
2023-01-08T01:42:41.979Z,100224.31
2023-01-08T01:45:18.095Z,100211.88
2023-01-08T01:47:50.790Z,100204.78
2023-01-08T01:50:21.456Z,100212.78
2023-01-08T01:52:55.747Z,100202.00
2023-01-08T01:55:23.776Z,100202.06
2023-01-08T01:57:57.249Z,100212.81
2023-01-08T02:00:26.204Z,100208.41
2023-01-08T02:02:56.990Z,100200.38
2023-01-08T02:05:30.327Z,100202.22
2023-01-08T02:08:06.061Z,100202.28
2023-01-08T02:10:40.670Z,100202.31
2023-01-08T02:13:14.077Z,100197.84
2023-01-08T02:15:49.208Z,100202.28
2023-01-08T02:18:21.563Z,100185.38
2023-01-08T02:20:55.602Z,100186.22
2023-01-08T02:23:31.462Z,100188.03
2023-01-08T02:26:11.778Z,100175.56
2023-01-08T02:28:43.611Z,100171.19
2023-01-08T02:31:13.170Z,100171.22
2023-01-08T02:33:41.365Z,100168.56
2023-01-08T02:36:21.729Z,100167.69
2023-01-08T02:39:01.305Z,100158.75
2023-01-08T02:41:42.431Z,100150.75
2023-01-08T02:44:14.020Z,100148.94
2023-01-08T02:46:43.276Z,100144.44
2023-01-08T02:49:14.407Z,100141.84
2023-01-08T02:51:46.656Z,100138.31
2023-01-08T02:54:17.994Z,100134.72
2023-01-08T02:56:52.345Z,100132.09
2023-01-08T02:59:22.143Z,100134.75
2023-01-08T03:01:50.610Z,100128.50
2023-01-08T03:04:20.645Z,100127.56
2023-01-08T03:06:49.406Z,100123.13
2023-01-08T03:09:18.252Z,100120.44
2023-01-08T03:11:54.700Z,100110.66
2023-01-08T03:14:29.291Z,100108.84
2023-01-08T03:17:00.086Z,100111.47
2023-01-08T03:19:31.137Z,100098.09
2023-01-08T03:22:02.172Z,100104.28
2023-01-08T03:24:34.417Z,100090.00
2023-01-08T03:27:08.102Z,100108.72
2023-01-08T03:29:37.715Z,100106.13
2023-01-08T03:32:10.165Z,100107.91
2023-01-08T03:34:41.646Z,100114.06
2023-01-08T03:37:11.282Z,100115.78
2023-01-08T03:39:43.341Z,100098.81
2023-01-08T03:42:16.437Z,100105.97
2023-01-08T03:44:44.581Z,100106.91
2023-01-08T03:47:14.183Z,100096.22
2023-01-08T03:49:44.681Z,100096.22
2023-01-08T03:52:22.596Z,100093.53
2023-01-08T03:54:50.578Z,100088.22
2023-01-08T03:57:19.788Z,100091.84
2023-01-08T03:59:48.000Z,100082.94
2023-01-08T04:02:16.589Z,100081.16
2023-01-08T04:04:44.641Z,100090.09
2023-01-08T04:07:13.544Z,100076.78
2023-01-08T04:09:41.568Z,100075.88
2023-01-08T04:12:09.300Z,100080.28
2023-01-08T04:14:38.581Z,100090.16
2023-01-08T04:17:06.339Z,100087.44
2023-01-08T04:19:34.174Z,100090.09
2023-01-08T04:22:01.967Z,100086.50
2023-01-08T04:24:29.744Z,100078.41
2023-01-08T04:26:57.584Z,100083.75
2023-01-08T04:29:25.287Z,100074.81
2023-01-08T04:31:54.474Z,100078.41
2023-01-08T04:34:22.304Z,100069.53
2023-01-08T04:36:50.067Z,100074.91
2023-01-08T04:39:18.181Z,100074.09
2023-01-08T04:41:45.937Z,100075.91
2023-01-08T04:44:13.764Z,100062.63
2023-01-08T04:46:41.570Z,100076.94
2023-01-08T04:49:11.600Z,100072.50
2023-01-08T04:51:39.353Z,100065.38
2023-01-08T04:54:07.481Z,100067.16
2023-01-08T04:56:35.219Z,100058.19
2023-01-08T04:59:03.070Z,100054.56
2023-01-08T05:01:31.464Z,100052.84
2023-01-08T05:04:01.181Z,100051.03
2023-01-08T05:06:32.302Z,100044.72
2023-01-08T05:09:00.677Z,100044.72
2023-01-08T05:11:28.736Z,100042.06
2023-01-08T05:13:56.815Z,100038.47
2023-01-08T05:16:25.112Z,100045.69
2023-01-08T05:18:52.870Z,100053.66
2023-01-08T05:21:20.606Z,100052.81
2023-01-08T05:23:49.828Z,100040.34
2023-01-08T05:26:19.482Z,100043.81
2023-01-08T05:28:47.658Z,100046.47
2023-01-08T05:31:15.967Z,100038.44
2023-01-08T05:33:44.117Z,100032.22
2023-01-08T05:36:14.039Z,100036.59
2023-01-08T05:38:42.374Z,100040.13
2023-01-08T05:41:12.061Z,100030.28
2023-01-08T05:43:39.872Z,100031.22
2023-01-08T05:46:07.674Z,100027.69
2023-01-08T05:48:37.254Z,100031.31
2023-01-08T05:51:05.832Z,100042.00
2023-01-08T05:53:34.014Z,100034.94
2023-01-08T05:56:03.256Z,100029.53
2023-01-08T05:58:32.781Z,100037.53
2023-01-08T06:01:04.982Z,100037.44
2023-01-08T06:03:32.961Z,100041.03
2023-01-08T06:06:01.979Z,100041.94
2023-01-08T06:08:30.399Z,100046.38
2023-01-08T06:11:00.727Z,100056.09
2023-01-08T06:13:29.054Z,100072.22
2023-01-08T06:15:59.751Z,100076.88
2023-01-08T06:18:27.854Z,100072.84
2023-01-08T06:20:55.660Z,100067.94
2023-01-08T06:23:24.039Z,100066.47
2023-01-08T06:25:53.897Z,100062.25
2023-01-08T06:28:21.739Z,100055.28
2023-01-08T06:30:49.704Z,100058.91
2023-01-08T06:33:21.077Z,100069.66
2023-01-08T06:35:49.127Z,100064.41
2023-01-08T06:38:19.130Z,100087.59
2023-01-08T06:40:46.985Z,100084.16
2023-01-08T06:43:14.816Z,100088.72
2023-01-08T06:45:42.602Z,100091.44
2023-01-08T06:48:10.365Z,100089.66
2023-01-08T06:50:39.788Z,100085.28
2023-01-08T06:53:07.544Z,100096.03
2023-01-08T06:55:35.323Z,100084.50
2023-01-08T06:58:03.151Z,100088.09
2023-01-08T07:00:31.624Z,100089.06
2023-01-08T07:02:59.484Z,100089.19
2023-01-08T07:05:27.380Z,100092.78
2023-01-08T07:07:56.724Z,100099.03
2023-01-08T07:10:24.610Z,100094.63
2023-01-08T07:12:52.374Z,100097.41
2023-01-08T07:15:20.415Z,100095.69
2023-01-08T07:17:48.212Z,100088.53
2023-01-08T07:20:16.564Z,100098.31
2023-01-08T07:22:44.350Z,100097.38
2023-01-08T07:25:13.686Z,100096.56
2023-01-08T07:27:41.580Z,100100.19
2023-01-08T07:30:20.899Z,100098.47
2023-01-08T07:32:59.648Z,100102.97
2023-01-08T07:35:27.505Z,100095.84
2023-01-08T07:37:55.281Z,100095.88
2023-01-08T07:40:31.767Z,100099.38
2023-01-08T07:43:00.444Z,100107.41
2023-01-08T07:45:28.716Z,100105.69
2023-01-08T07:48:02.805Z,100103.88
2023-01-08T07:50:31.143Z,100103.00
2023-01-08T07:52:59.684Z,100091.34
2023-01-08T07:55:28.426Z,100100.25
2023-01-08T07:57:57.817Z,100094.03
2023-01-08T08:00:25.624Z,100105.53
2023-01-08T08:02:53.509Z,100096.72
2023-01-08T08:05:21.423Z,100095.91
2023-01-08T08:07:49.360Z,100078.94
2023-01-08T08:10:17.791Z,100083.34
2023-01-08T08:12:46.349Z,100080.78
2023-01-08T08:15:15.658Z,100078.03
2023-01-08T08:17:47.076Z,100096.81
2023-01-08T08:20:15.077Z,100088.94
2023-01-08T08:22:42.912Z,100093.47
2023-01-08T08:25:11.440Z,100090.88
2023-01-08T08:27:39.265Z,100086.47
2023-01-08T08:30:08.446Z,100082.97
2023-01-08T08:32:37.828Z,100086.47
2023-01-08T08:35:06.346Z,100084.75
2023-01-08T08:37:34.159Z,100092.69
2023-01-08T08:40:01.886Z,100085.63
2023-01-08T08:42:30.559Z,100080.28
2023-01-08T08:44:58.293Z,100077.63
2023-01-08T08:47:26.113Z,100077.59
2023-01-08T08:49:55.226Z,100082.00
2023-01-08T08:52:23.055Z,100077.53
2023-01-08T08:54:50.814Z,100081.06
2023-01-08T08:57:18.552Z,100076.63
2023-01-08T08:59:46.324Z,100079.25
2023-01-08T09:02:14.250Z,100067.56
2023-01-08T09:04:42.244Z,100070.16
2023-01-08T09:07:11.408Z,100078.03
2023-01-08T09:09:39.129Z,100059.25
2023-01-08T09:12:07.456Z,100066.25
2023-01-08T09:14:35.230Z,100072.31
2023-01-08T09:17:03.137Z,100072.28
2023-01-08T09:19:30.948Z,100066.13
2023-01-08T09:21:58.749Z,100072.34
2023-01-08T09:24:27.848Z,100065.19
2023-01-08T09:26:55.915Z,100062.53
2023-01-08T09:29:24.013Z,100057.97
2023-01-08T09:31:52.297Z,100061.53
2023-01-08T09:34:20.092Z,100065.00
2023-01-08T09:36:50.904Z,100049.75
2023-01-08T09:39:18.798Z,100048.88
2023-01-08T09:41:49.002Z,100044.31
2023-01-08T09:44:21.680Z,100044.22
2023-01-08T09:46:50.829Z,100036.97
2023-01-08T09:49:25.156Z,100036.81
2023-01-08T09:51:53.875Z,100038.38
2023-01-08T09:54:26.135Z,100047.16
2023-01-08T09:56:55.971Z,100046.16
2023-01-08T09:59:24.241Z,100043.38
2023-01-08T10:01:54.297Z,100045.13
2023-01-08T10:04:24.405Z,100037.03
2023-01-08T10:06:56.396Z,100030.69
2023-01-08T10:09:28.180Z,100026.19
2023-01-08T10:12:02.821Z,100024.34
2023-01-08T10:14:33.361Z,100028.63
2023-01-08T10:17:04.964Z,100028.47
2023-01-08T10:19:36.248Z,100023.94
2023-01-08T10:22:05.106Z,100019.34
2023-01-08T10:24:35.202Z,100006.75
2023-01-08T10:27:17.338Z,100002.09
2023-01-08T10:29:46.903Z,99988.56
2023-01-08T10:32:17.485Z,99979.47
2023-01-08T10:34:48.580Z,99976.63
2023-01-08T10:37:26.941Z,99973.75
2023-01-08T10:39:56.333Z,99972.66
2023-01-08T10:42:25.838Z,99967.09
2023-01-08T10:45:01.192Z,99960.69
2023-01-08T10:47:31.980Z,99955.97
2023-01-08T10:50:02.136Z,99956.63
2023-01-08T10:52:33.682Z,99938.75
2023-01-08T10:55:13.120Z,99945.03
2023-01-08T10:57:43.826Z,99940.56
2023-01-08T11:00:27.179Z,99931.81
2023-01-08T11:02:55.541Z,99927.34
2023-01-08T11:05:31.216Z,99932.53
2023-01-08T11:08:00.744Z,99928.13
2023-01-08T11:10:30.213Z,99922.78
2023-01-08T11:13:01.619Z,99927.19
2023-01-08T11:15:33.327Z,99918.09
2023-01-08T11:18:19.574Z,99901.09
2023-01-08T11:20:48.220Z,99901.88
2023-01-08T11:23:22.112Z,99905.47
2023-01-08T11:25:56.950Z,99902.22
2023-01-08T11:28:32.902Z,99913.94
2023-01-08T11:31:21.361Z,99904.19
2023-01-08T11:33:54.894Z,99894.53
2023-01-08T11:36:28.458Z,99893.88
2023-01-08T11:38:56.323Z,99906.44
2023-01-08T11:41:53.953Z,99894.06
2023-01-08T11:44:41.857Z,99879.09
2023-01-08T11:47:22.704Z,99884.59
2023-01-08T11:50:10.101Z,99881.91
2023-01-08T11:52:49.732Z,99872.84
2023-01-08T11:55:26.810Z,99864.72
2023-01-08T11:58:08.711Z,99856.56
2023-01-08T12:00:58.723Z,99851.09
2023-01-08T12:03:33.563Z,99848.41
2023-01-08T12:06:11.606Z,99843.84
2023-01-08T12:08:52.687Z,99844.75
2023-01-08T12:11:26.780Z,99848.47
2023-01-08T12:14:12.917Z,99851.25
2023-01-08T12:16:56.914Z,99841.63
2023-01-08T12:19:40.139Z,99844.53
2023-01-08T12:22:24.200Z,99851.72
2023-01-08T12:25:17.745Z,99843.91
2023-01-08T12:27:57.427Z,99841.38
2023-01-08T12:30:36.555Z,99828.00
2023-01-08T12:33:11.144Z,99827.09
2023-01-08T12:35:42.484Z,99831.66
2023-01-08T12:38:14.260Z,99837.84
2023-01-08T12:40:46.380Z,99831.34
2023-01-08T12:43:18.932Z,99829.03
2023-01-08T12:45:48.188Z,99824.94
2023-01-08T12:48:20.027Z,99822.78
2023-01-08T12:51:00.755Z,99829.75
2023-01-08T12:53:36.780Z,99823.59
2023-01-08T12:56:11.860Z,99818.38
2023-01-08T12:59:00.753Z,99812.50
2023-01-08T13:01:41.664Z,99817.91
2023-01-08T13:04:13.547Z,99817.13
2023-01-08T13:06:51.853Z,99805.50
2023-01-08T13:09:24.701Z,99804.63
2023-01-08T13:11:54.073Z,99809.03
2023-01-08T13:14:22.454Z,99806.41
2023-01-08T13:17:03.595Z,99802.06
2023-01-08T13:19:41.328Z,99804.06
2023-01-08T13:22:24.564Z,99797.72
2023-01-08T13:24:52.797Z,99788.69
2023-01-08T13:27:30.649Z,99790.41
2023-01-08T13:29:58.757Z,99782.34
2023-01-08T13:32:38.034Z,99782.13
2023-01-08T13:35:29.506Z,99776.81
2023-01-08T13:38:14.234Z,99772.41
2023-01-08T13:40:57.528Z,99767.88
2023-01-08T13:43:29.975Z,99769.00
2023-01-08T13:46:15.651Z,99770.00
2023-01-08T13:48:51.614Z,99766.50
2023-01-08T13:51:34.921Z,99768.38
2023-01-08T13:54:15.160Z,99761.16
2023-01-08T13:56:44.371Z,99746.72
2023-01-08T13:59:24.680Z,99742.28
2023-01-08T14:01:57.136Z,99758.38
2023-01-08T14:04:25.612Z,99752.06
2023-01-08T14:06:55.420Z,99757.53
2023-01-08T14:09:25.399Z,99754.09
2023-01-08T14:15:00.547Z,99737.94
2023-01-08T14:17:33.361Z,99739.72
2023-01-08T14:20:01.412Z,99732.66
2023-01-08T14:22:33.998Z,99733.66
2023-01-08T14:25:04.690Z,99730.94
2023-01-08T14:27:34.363Z,99722.81
2023-01-08T14:30:02.993Z,99721.78
2023-01-08T14:32:32.324Z,99714.44
2023-01-08T14:35:02.263Z,99717.03
2023-01-08T14:37:31.630Z,99712.53
2023-01-08T14:39:59.527Z,99717.19
2023-01-08T14:42:47.282Z,99712.94
2023-01-08T14:45:22.403Z,99701.44
2023-01-08T14:47:52.683Z,99711.19
2023-01-08T14:50:25.285Z,99710.31
2023-01-08T14:52:58.955Z,99708.88
2023-01-08T14:55:28.602Z,99700.28
2023-01-08T14:57:58.224Z,99705.72
2023-01-08T15:00:29.092Z,99699.72
2023-01-08T15:02:57.102Z,99697.16
2023-01-08T15:05:29.759Z,99692.78
2023-01-08T15:08:06.183Z,99694.81
2023-01-08T15:10:44.441Z,99695.81
2023-01-08T15:13:24.104Z,99690.66
2023-01-08T15:16:00.601Z,99683.59
2023-01-08T15:18:28.930Z,99682.78
2023-01-08T15:20:57.081Z,99675.56
2023-01-08T15:23:37.185Z,99690.88
2023-01-08T15:26:05.196Z,99693.69
2023-01-08T15:28:33.154Z,99685.81
2023-01-08T15:31:03.618Z,99675.16
2023-01-08T15:33:34.206Z,99676.91
2023-01-08T15:36:02.013Z,99666.22
2023-01-08T15:38:31.759Z,99680.56
2023-01-08T15:40:59.551Z,99672.59
2023-01-08T15:43:26.316Z,99672.69
2023-01-08T15:45:54.211Z,99677.13
2023-01-08T15:48:24.831Z,99679.84
2023-01-08T15:50:53.545Z,99666.63
2023-01-08T15:53:23.581Z,99667.69
2023-01-08T15:55:53.189Z,99665.72
2023-01-08T15:58:23.621Z,99664.97
2023-01-08T16:00:51.582Z,99662.94
2023-01-08T16:03:20.288Z,99660.41
2023-01-08T16:05:48.213Z,99665.06
2023-01-08T16:08:16.051Z,99666.97
2023-01-08T16:10:44.057Z,99668.06
2023-01-08T16:13:13.242Z,99658.38
2023-01-08T16:15:42.296Z,99663.78
2023-01-08T16:18:10.225Z,99661.00
2023-01-08T16:20:40.196Z,99654.78
2023-01-08T16:23:08.673Z,99667.88
2023-01-08T16:25:36.755Z,99660.78
2023-01-08T16:28:04.631Z,99651.66
2023-01-08T16:30:34.143Z,99657.75
2023-01-08T16:33:02.136Z,99657.66
2023-01-08T16:35:30.496Z,99659.56
2023-01-08T16:37:58.593Z,99663.00
2023-01-08T16:40:26.710Z,99658.47
2023-01-08T16:42:54.712Z,99657.56
2023-01-08T16:45:22.812Z,99653.16
2023-01-08T16:47:52.736Z,99639.72
2023-01-08T16:50:20.485Z,99647.69
2023-01-08T16:52:50.916Z,99647.69
2023-01-08T16:55:19.596Z,99647.72
2023-01-08T16:57:48.018Z,99636.41
2023-01-08T17:00:16.968Z,99644.47
2023-01-08T17:02:44.972Z,99637.38
2023-01-08T17:05:14.967Z,99635.59
2023-01-08T17:07:43.125Z,99626.91
2023-01-08T17:10:13.192Z,99627.09
2023-01-08T17:12:43.549Z,99613.84
2023-01-08T17:15:13.229Z,99623.88
2023-01-08T17:17:41.893Z,99616.72
2023-01-08T17:20:11.765Z,99620.38
2023-01-08T17:22:43.221Z,99628.44
2023-01-08T17:25:11.695Z,99617.03
2023-01-08T17:27:43.161Z,99616.22
2023-01-08T17:30:13.422Z,99617.25
2023-01-08T17:32:41.895Z,99620.00
2023-01-08T17:35:10.405Z,99612.00
2023-01-08T17:37:38.447Z,99615.63
2023-01-08T17:40:09.603Z,99611.19
2023-01-08T17:42:39.813Z,99619.28
2023-01-08T17:45:09.948Z,99619.41
2023-01-08T17:47:43.466Z,99619.53
2023-01-08T17:50:12.820Z,99608.88
2023-01-08T17:52:42.009Z,99601.72
2023-01-08T17:55:11.773Z,99604.34
2023-01-08T17:57:40.818Z,99595.47
2023-01-08T18:00:10.299Z,99592.94
2023-01-08T18:02:38.412Z,99583.34
2023-01-08T18:05:09.537Z,99584.31
2023-01-08T18:07:39.117Z,99578.16
2023-01-08T18:10:08.704Z,99576.44
2023-01-08T18:12:38.231Z,99573.84
2023-01-08T18:15:08.522Z,99576.59
2023-01-08T18:17:42.745Z,99577.59
2023-01-08T18:20:11.755Z,99575.03
2023-01-08T18:22:40.032Z,99568.94
2023-01-08T18:25:10.123Z,99568.13
2023-01-08T18:27:39.695Z,99568.19
2023-01-08T18:30:11.470Z,99565.56
2023-01-08T18:32:39.377Z,99563.84
2023-01-08T18:35:08.034Z,99560.28
2023-01-08T18:37:36.073Z,99560.28
2023-01-08T18:40:04.053Z,99557.69
2023-01-08T18:42:33.202Z,99556.94
2023-01-08T18:45:03.657Z,99552.50
2023-01-08T18:47:31.888Z,99553.50
2023-01-08T18:50:03.502Z,99542.00
2023-01-08T18:52:32.604Z,99533.09
2023-01-08T18:55:00.323Z,99533.16
2023-01-08T18:57:28.973Z,99527.81
2023-01-08T18:59:56.791Z,99521.66
2023-01-08T19:02:33.111Z,99517.28
2023-01-08T19:05:03.429Z,99517.28
2023-01-08T19:07:32.934Z,99512.97
2023-01-08T19:10:01.322Z,99512.09
2023-01-08T19:12:32.022Z,99508.47
2023-01-08T19:15:00.041Z,99497.75
2023-01-08T19:17:33.096Z,99500.25
2023-01-08T19:20:01.012Z,99492.22
2023-01-08T19:22:29.566Z,99494.75
2023-01-08T19:24:58.054Z,99489.34
2023-01-08T19:27:31.015Z,99478.59
2023-01-08T19:30:02.536Z,99483.75
2023-01-08T19:32:31.811Z,99467.63
2023-01-08T19:35:01.606Z,99469.25
2023-01-08T19:37:29.393Z,99466.50
2023-01-08T19:40:01.094Z,99461.13
2023-01-08T19:42:46.355Z,99455.69
2023-01-08T19:45:14.349Z,99444.94
2023-01-08T19:47:43.739Z,99453.75
2023-01-08T19:50:12.734Z,99450.19
2023-01-08T19:52:40.645Z,99438.63
2023-01-08T19:55:09.004Z,99440.28
2023-01-08T19:57:37.099Z,99437.66
2023-01-08T20:00:05.821Z,99432.56
2023-01-08T20:02:34.034Z,99430.03
2023-01-08T20:05:03.324Z,99423.97
2023-01-08T20:07:31.178Z,99428.53
2023-01-08T20:09:59.120Z,99420.63
2023-01-08T20:12:27.220Z,99418.03
2023-01-08T20:14:55.169Z,99420.88
2023-01-08T20:17:25.216Z,99415.59
2023-01-08T20:19:53.307Z,99419.94
2023-01-08T20:22:22.855Z,99418.94
2023-01-08T20:24:54.036Z,99409.09
2023-01-08T20:27:22.439Z,99401.84
2023-01-08T20:29:50.537Z,99400.09
2023-01-08T20:32:21.035Z,99401.84
2023-01-08T20:34:50.735Z,99400.91
2023-01-08T20:37:18.868Z,99396.44
2023-01-08T20:39:48.260Z,99394.59
2023-01-08T20:42:22.074Z,99392.69
2023-01-08T20:44:55.400Z,99386.34
2023-01-08T20:47:23.615Z,99379.16
2023-01-08T20:49:53.004Z,99372.97
2023-01-08T20:52:21.156Z,99378.25
2023-01-08T20:54:50.726Z,99380.00
2023-01-08T20:57:18.533Z,99384.44
2023-01-08T20:59:49.082Z,99378.16
2023-01-08T21:02:16.865Z,99374.59
2023-01-08T21:04:44.622Z,99370.97
2023-01-08T21:07:12.426Z,99357.59
2023-01-08T21:09:40.492Z,99354.16
2023-01-08T21:12:10.341Z,99350.56
2023-01-08T21:14:39.238Z,99348.69
2023-01-08T21:17:07.133Z,99340.53
2023-01-08T21:19:34.872Z,99330.75
2023-01-08T21:22:02.911Z,99329.88
2023-01-08T21:24:30.773Z,99327.19
2023-01-08T21:26:58.615Z,99325.50
2023-01-08T21:29:28.718Z,99317.47
2023-01-08T21:31:56.503Z,99306.69
2023-01-08T21:34:24.325Z,99302.28
2023-01-08T21:36:52.423Z,99303.97
2023-01-08T21:39:20.221Z,99296.03
2023-01-08T21:42:05.672Z,99304.78
2023-01-08T21:44:52.130Z,99295.88
2023-01-08T21:47:20.037Z,99297.59
2023-01-08T21:49:48.214Z,99279.72
2023-01-08T21:52:33.661Z,99278.84
2023-01-08T21:55:01.704Z,99279.78
2023-01-08T21:57:29.782Z,99275.28
2023-01-08T22:00:04.111Z,99270.75
2023-01-08T22:02:32.354Z,99267.22
2023-01-08T22:05:00.162Z,99272.56
2023-01-08T22:07:28.524Z,99264.59
2023-01-08T22:09:58.256Z,99252.13
2023-01-08T22:12:26.138Z,99250.38
2023-01-08T22:14:54.358Z,99247.00
2023-01-08T22:17:25.518Z,99247.91
2023-01-08T22:19:53.846Z,99251.63
2023-01-08T22:22:21.908Z,99245.47
2023-01-08T22:24:51.165Z,99252.63
2023-01-08T22:27:19.458Z,99246.59
2023-01-08T22:29:50.074Z,99248.41
2023-01-08T22:32:18.105Z,99242.16
2023-01-08T22:34:47.489Z,99250.22
2023-01-08T22:37:16.949Z,99241.25
2023-01-08T22:39:44.932Z,99237.63
2023-01-08T22:42:12.965Z,99236.81
2023-01-08T22:44:40.992Z,99226.16
2023-01-08T22:47:10.219Z,99220.81
2023-01-08T22:49:38.468Z,99224.44
2023-01-08T22:52:08.755Z,99213.78
2023-01-08T22:54:36.644Z,99215.59
2023-01-08T22:57:04.475Z,99213.88
2023-01-08T22:59:34.591Z,99218.31
2023-01-08T23:02:02.375Z,99213.88
2023-01-08T23:04:30.330Z,99216.50
2023-01-08T23:06:58.044Z,99215.69
2023-01-08T23:09:27.492Z,99219.25
2023-01-08T23:11:55.357Z,99221.94
2023-01-08T23:14:23.186Z,99220.19
2023-01-08T23:16:51.037Z,99225.50
2023-01-08T23:19:20.983Z,99221.06
2023-01-08T23:21:48.775Z,99220.22
2023-01-08T23:24:16.689Z,99218.47
2023-01-08T23:26:45.988Z,99211.31
2023-01-08T23:29:14.066Z,99204.22
2023-01-08T23:31:44.119Z,99213.09
2023-01-08T23:34:12.671Z,99225.59
2023-01-08T23:36:40.806Z,99222.03
2023-01-08T23:39:09.257Z,99216.78
2023-01-08T23:41:37.017Z,99220.31
2023-01-08T23:44:08.150Z,99207.91
2023-01-08T23:46:37.725Z,99223.91
2023-01-08T23:49:07.036Z,99215.03
2023-01-08T23:51:34.813Z,99211.53
2023-01-08T23:54:02.675Z,99212.50
2023-01-08T23:56:30.465Z,99221.47
2023-01-08T23:58:58.980Z,99216.09
